createdAt,value
2019-02-25T20:07:15.892Z,11.33
2019-02-25T20:09:44.834Z,11.40
2019-02-25T20:12:13.836Z,11.15
2019-02-25T20:14:42.626Z,11.63
2019-02-25T20:17:11.517Z,10.28
2019-02-25T20:19:41.741Z,10.90
2019-02-25T20:22:12.005Z,10.88
2019-02-25T20:24:44.187Z,10.25
2019-02-25T20:27:10.970Z,10.78
2019-02-25T20:29:40.376Z,9.78
2019-02-25T20:32:11.755Z,10.72
2019-02-25T20:34:40.304Z,10.05
2019-02-25T20:37:09.092Z,10.53
2019-02-25T20:39:38.686Z,9.75
2019-02-25T20:42:08.206Z,9.78
2019-02-25T20:44:36.691Z,10.50
2019-02-25T20:47:05.269Z,9.45
2019-02-25T20:49:33.955Z,10.35
2019-02-25T20:52:02.643Z,10.28
2019-02-25T20:54:31.219Z,10.63
2019-02-25T20:57:00.017Z,9.88
2019-02-25T20:59:30.350Z,9.35
2019-02-25T21:01:58.820Z,9.73
2019-02-25T21:04:27.807Z,9.93
2019-02-25T21:06:56.583Z,9.33
2019-02-25T21:11:39.373Z,8.88
2019-02-25T21:14:08.014Z,9.58
2019-02-25T21:16:36.699Z,9.43
2019-02-25T21:19:05.287Z,9.83
2019-02-25T21:21:34.559Z,9.18
2019-02-25T21:24:06.282Z,9.90
2019-02-25T21:26:36.374Z,9.28
2019-02-25T21:29:06.804Z,9.28
2019-02-25T21:31:34.994Z,9.70
2019-02-25T21:34:03.910Z,8.78
2019-02-25T21:36:33.876Z,8.90
2019-02-25T21:39:03.068Z,8.50
2019-02-25T21:41:31.650Z,9.08
2019-02-25T21:44:00.231Z,8.43
2019-02-25T21:46:29.559Z,8.73
2019-02-25T21:49:01.614Z,8.80
2019-02-25T21:51:32.676Z,9.28
2019-02-25T21:53:59.999Z,8.63
2019-02-25T21:56:29.705Z,8.20
2019-02-25T21:58:58.281Z,8.15
2019-02-25T22:01:26.975Z,8.10
2019-02-25T22:03:55.661Z,8.98
2019-02-25T22:06:26.363Z,9.13
2019-02-25T22:08:56.249Z,8.35
2019-02-25T22:11:24.686Z,8.68
2019-02-25T22:13:53.269Z,8.23
2019-02-25T22:16:23.493Z,7.97
2019-02-25T22:18:52.668Z,8.50
2019-02-25T22:21:22.434Z,9.00
2019-02-25T22:24:44.950Z,8.30
2019-02-25T22:27:14.475Z,7.78
2019-02-25T22:29:45.220Z,8.40
2019-02-25T22:33:30.422Z,8.10
2019-02-25T22:35:58.884Z,8.60
2019-02-25T22:38:27.379Z,8.23
2019-02-25T22:40:57.567Z,7.95
2019-02-25T22:43:25.989Z,8.23
2019-02-25T22:45:56.201Z,8.68
2019-02-25T22:48:24.603Z,8.13
2019-02-25T22:53:06.797Z,8.13
2019-02-25T22:55:41.892Z,8.73
2019-02-25T22:58:10.433Z,8.13
2019-02-25T23:00:53.664Z,8.55
2019-02-25T23:03:25.795Z,8.55
2019-02-25T23:05:55.541Z,8.00
2019-02-25T23:08:25.974Z,7.85
